Time;durP1;ratioP1;P1;durP2;ratioP2;P2;SDS_P1;SDS_P2;PMS_P1;PMS_P2;Temp;Humidity;BMP_temperature;BMP_pressure;BME280_temperature;BME280_humidity;BME280_pressure;Samples;Min_cycle;Max_cycle;Signal;HPM_P1;HPM_P2
2022/06/21 00:01:10;;;;;;;2.10;1.90;;;10.90;99.90;;;;;;5066245;28;20062;-60
2022/06/21 00:03:36;;;;;;;5.72;1.90;;;10.90;99.90;;;;;;5109133;28;20039;-60
2022/06/21 00:06:02;;;;;;;4.90;3.15;;;10.90;99.90;;;;;;5091349;28;20032;-60
2022/06/21 00:08:33;;;;;;;3.25;1.77;;;10.90;99.90;;;;;;5108793;28;20508;-60
2022/06/21 00:11:00;;;;;;;2.53;1.85;;;10.90;99.90;;;;;;5111400;28;20031;-60
2022/06/21 00:13:29;;;;;;;2.30;1.80;;;10.80;99.90;;;;;;5095311;28;20024;-60
2022/06/21 00:16:02;;;;;;;3.70;1.75;;;10.80;99.90;;;;;;5111308;28;20477;-60
2022/06/21 00:18:30;;;;;;;3.00;2.30;;;10.80;99.90;;;;;;5081492;28;20040;-60
2022/06/21 00:20:56;;;;;;;5.35;2.33;;;10.80;99.90;;;;;;5111323;28;20047;-60
2022/06/21 00:23:28;;;;;;;4.68;2.30;;;10.80;99.90;;;;;;5094592;28;20070;-59
2022/06/21 00:25:54;;;;;;;5.50;2.45;;;10.70;99.90;;;;;;5111002;28;20055;-60
2022/06/21 00:28:21;;;;;;;5.65;2.28;;;10.70;99.90;;;;;;5093118;28;20077;-60
2022/06/21 00:30:48;;;;;;;3.80;2.20;;;10.70;99.90;;;;;;5111003;28;20106;-60
2022/06/21 00:33:17;;;;;;;2.33;1.80;;;10.70;99.90;;;;;;5091819;28;20524;-60
2022/06/21 00:35:46;;;;;;;3.08;2.05;;;10.70;99.90;;;;;;5109603;28;20073;-59
2022/06/21 00:38:13;;;;;;;3.70;1.92;;;10.60;99.90;;;;;;5092915;27;20027;-60
2022/06/21 00:40:39;;;;;;;3.95;2.20;;;10.60;99.90;;;;;;5108465;28;20028;-60
2022/06/21 00:43:29;;;;;;;4.57;2.50;;;10.60;99.90;;;;;;5091669;28;20039;-59
2022/06/21 00:45:55;;;;;;;3.45;2.40;;;10.70;99.90;;;;;;5110769;28;20028;-49
2022/06/21 00:48:27;;;;;;;3.67;2.85;;;10.70;99.90;;;;;;5094309;28;20097;-50
2022/06/21 00:51:04;;;;;;;3.10;2.65;;;10.90;99.90;;;;;;5110445;28;20024;-67
2022/06/21 00:53:35;;;;;;;3.30;2.40;;;10.90;99.90;;;;;;5081824;28;20032;-66
2022/06/21 00:56:08;;;;;;;4.10;2.55;;;11.00;99.90;;;;;;5110447;28;20032;-67
2022/06/21 00:58:34;;;;;;;3.38;2.15;;;11.10;99.90;;;;;;5082606;28;20089;-67
2022/06/21 01:01:04;;;;;;;4.60;2.25;;;11.10;99.90;;;;;;5089654;28;20040;-60
2022/06/21 01:03:34;;;;;;;3.17;2.63;;;11.10;99.90;;;;;;5107669;28;20763;-60
2022/06/21 01:06:04;;;;;;;6.60;2.90;;;11.10;99.90;;;;;;5109120;28;20511;-59
2022/06/21 01:08:34;;;;;;;4.40;2.70;;;11.10;99.90;;;;;;5081405;28;20027;-60
2022/06/21 01:11:05;;;;;;;4.88;2.97;;;11.00;99.90;;;;;;5110277;28;20035;-48
2022/06/21 01:13:38;;;;;;;4.45;2.72;;;11.00;99.90;;;;;;5081125;28;20520;-47
2022/06/21 01:16:05;;;;;;;5.47;3.20;;;11.00;99.90;;;;;;5109961;28;20642;-48
2022/06/21 01:18:31;;;;;;;4.55;3.13;;;11.00;99.90;;;;;;5094878;28;20032;-51
2022/06/21 01:20:59;;;;;;;7.70;3.15;;;10.90;99.90;;;;;;5110089;28;20035;-49
2022/06/21 01:23:45;;;;;;;5.53;2.97;;;10.90;99.90;;;;;;5093652;28;20036;-48
2022/06/21 01:26:19;;;;;;;4.18;3.17;;;10.80;99.90;;;;;;5109883;28;20068;-51
2022/06/21 01:28:46;;;;;;;5.93;2.97;;;10.80;99.90;;;;;;5084828;28;20461;-50
2022/06/21 01:31:12;;;;;;;7.65;3.30;;;10.80;99.90;;;;;;5089881;28;20024;-47
2022/06/21 01:33:42;;;;;;;4.30;3.03;;;10.70;99.90;;;;;;5106907;28;20486;-46
2022/06/21 01:36:17;;;;;;;5.68;3.20;;;10.70;99.90;;;;;;5089418;28;20024;-46
2022/06/21 01:38:49;;;;;;;4.88;3.08;;;10.70;99.90;;;;;;5082304;28;20483;-50
2022/06/21 01:41:18;;;;;;;4.53;3.20;;;10.70;99.90;;;;;;5109293;28;20103;-46
2022/06/21 01:43:47;;;;;;;3.80;3.03;;;10.70;99.90;;;;;;5087390;28;20040;-46
2022/06/21 01:46:17;;;;;;;6.53;4.07;;;10.70;99.90;;;;;;5109413;28;20024;-46
2022/06/21 01:49:10;;;;;;;5.55;3.90;;;10.80;99.90;;;;;;5086955;28;20036;-47
2022/06/21 01:51:45;;;;;;;6.00;3.90;;;10.90;99.90;;;;;;5102992;28;20039;-47
2022/06/21 01:54:14;;;;;;;4.68;3.75;;;11.00;99.90;;;;;;5074655;28;20440;-47
2022/06/21 01:56:41;;;;;;;6.80;3.38;;;11.10;99.90;;;;;;5109303;28;20019;-48
2022/06/21 01:59:26;;;;;;;8.88;4.35;;;11.10;99.90;;;;;;5090438;28;20231;-50
2022/06/21 02:02:01;;;;;;;5.85;3.72;;;11.20;99.90;;;;;;5106020;28;20035;-46
2022/06/21 02:04:32;;;;;;;5.93;3.90;;;11.30;99.90;;;;;;5078993;28;20235;-53
2022/06/21 02:07:11;;;;;;;6.45;3.67;;;11.30;99.90;;;;;;5109185;28;20032;-50
2022/06/21 02:09:44;;;;;;;7.28;3.80;;;11.30;99.90;;;;;;5081894;28;20633;-47
2022/06/21 02:12:11;;;;;;;6.80;3.83;;;11.40;99.90;;;;;;5068297;28;20024;-48
2022/06/21 02:14:43;;;;;;;5.32;4.00;;;11.40;99.90;;;;;;5106136;28;20073;-49
2022/06/21 02:17:20;;;;;;;6.60;3.70;;;11.40;99.90;;;;;;5068389;28;20036;-48
2022/06/21 02:19:57;;;;;;;5.53;3.38;;;11.40;99.90;;;;;;5084262;28;20304;-46
2022/06/21 02:22:27;;;;;;;5.00;3.38;;;11.50;99.90;;;;;;5068097;28;20033;-48
2022/06/21 02:24:54;;;;;;;4.82;3.75;;;11.60;99.90;;;;;;5086307;28;20410;-47
2022/06/21 02:27:23;;;;;;;6.75;4.10;;;11.60;99.90;;;;;;5091576;28;20543;-47
2022/06/21 02:29:54;;;;;;;3.97;3.15;;;11.70;99.90;;;;;;5106835;28;20036;-46
2022/06/21 02:32:29;;;;;;;6.80;3.42;;;11.70;99.90;;;;;;5088418;28;20522;-47
2022/06/21 02:35:03;;;;;;;7.40;3.20;;;11.70;99.90;;;;;;5086950;28;20031;-51
2022/06/21 02:37:29;;;;;;;5.22;3.75;;;11.80;99.90;;;;;;5068223;28;20037;-47
2022/06/21 02:39:57;;;;;;;5.95;3.55;;;11.80;99.90;;;;;;5105430;28;20039;-46
2022/06/21 02:42:28;;;;;;;4.90;3.47;;;11.80;99.90;;;;;;5088612;28;20028;-49
2022/06/21 02:45:07;;;;;;;5.97;3.42;;;11.80;99.90;;;;;;5086559;28;20042;-53
2022/06/21 02:47:40;;;;;;;4.85;2.92;;;11.80;99.90;;;;;;5068045;28;20024;-46
2022/06/21 02:50:36;;;;;;;6.18;3.60;;;11.80;99.90;;;;;;5077870;28;20426;-50
2022/06/21 02:53:07;;;;;;;5.05;2.83;;;11.70;99.90;;;;;;5068076;28;20025;-50
2022/06/21 02:55:53;;;;;;;5.70;3.28;;;11.60;99.90;;;;;;5081469;28;20036;-47
2022/06/21 02:58:48;;;;;;;6.25;3.42;;;11.50;99.90;;;;;;5107824;28;20031;-49
2022/06/21 03:01:16;;;;;;;6.30;4.00;;;11.50;99.90;;;;;;5076505;28;20508;-49
2022/06/21 03:03:42;;;;;;;4.50;3.30;;;11.50;99.90;;;;;;5105498;28;20396;-47
2022/06/21 03:06:12;;;;;;;5.50;3.28;;;11.50;99.90;;;;;;5112163;28;20031;-48
2022/06/21 03:08:48;;;;;;;7.35;4.00;;;11.50;99.90;;;;;;5071876;28;20507;-48
2022/06/21 03:11:14;;;;;;;3.50;3.07;;;11.60;99.90;;;;;;5072143;28;20381;-48
2022/06/21 03:13:41;;;;;;;3.72;3.22;;;11.60;99.90;;;;;;5110802;28;20291;-47
2022/06/21 03:16:12;;;;;;;4.90;3.10;;;11.70;99.90;;;;;;5109455;28;20111;-48
2022/06/21 03:18:45;;;;;;;5.68;4.15;;;11.80;99.90;;;;;;5071614;28;20104;-50
2022/06/21 03:21:14;;;;;;;7.57;3.35;;;11.90;99.90;;;;;;5071600;28;20050;-51
2022/06/21 03:23:42;;;;;;;4.53;3.30;;;11.90;99.90;;;;;;5109358;28;20043;-49
2022/06/21 03:26:08;;;;;;;7.75;3.70;;;12.00;99.90;;;;;;5090651;28;20024;-49
2022/06/21 03:28:38;;;;;;;5.57;3.28;;;12.10;99.90;;;;;;5107422;28;20051;-48
2022/06/21 03:31:05;;;;;;;5.40;3.75;;;12.30;99.90;;;;;;5112172;28;20030;-48
2022/06/21 03:33:34;;;;;;;6.85;3.35;;;12.40;99.90;;;;;;5096510;28;20163;-51
2022/06/21 03:36:02;;;;;;;5.80;4.00;;;12.60;99.90;;;;;;5111694;28;20720;-48
2022/06/21 03:38:27;;;;;;;6.68;3.47;;;12.70;99.90;;;;;;5096304;27;20016;-47
2022/06/21 03:43:44;;;;;;;4.53;3.35;;;12.90;99.90;;;;;;5070973;28;20113;-47
2022/06/21 03:46:16;;;;;;;5.53;3.10;;;13.00;99.90;;;;;;5071172;28;20670;-47
2022/06/21 03:48:54;;;;;;;8.32;3.42;;;13.30;99.90;;;;;;5076186;28;20024;-48
2022/06/21 03:51:25;;;;;;;3.78;3.00;;;13.50;99.90;;;;;;5071073;28;20068;-46
2022/06/21 03:54:00;;;;;;;5.35;2.70;;;13.50;99.90;;;;;;5085789;28;20715;-47
2022/06/21 03:56:34;;;;;;;4.57;2.60;;;13.40;99.90;;;;;;5070767;28;20033;-47
2022/06/21 03:59:08;;;;;;;6.07;3.30;;;13.40;99.90;;;;;;5088210;28;20307;-46
2022/06/21 04:01:55;;;;;;;5.43;2.75;;;13.30;99.90;;;;;;5067794;28;20067;-47
2022/06/21 04:04:33;;;;;;;2.83;2.38;;;13.30;99.90;;;;;;5093995;28;20033;-46
2022/06/21 04:07:11;;;;;;;3.28;2.60;;;13.20;99.90;;;;;;5070965;28;20043;-47
2022/06/21 04:10:02;;;;;;;3.83;3.05;;;13.20;99.90;;;;;;5083812;28;20051;-48
2022/06/21 04:12:43;;;;;;;4.65;2.75;;;13.10;99.90;;;;;;5070808;28;20033;-46
2022/06/21 04:15:20;;;;;;;6.30;2.85;;;13.10;99.90;;;;;;5069618;28;20029;-47
2022/06/21 04:18:11;;;;;;;4.18;3.30;;;13.10;99.90;;;;;;5071104;28;20021;-50
2022/06/21 04:21:05;;;;;;;4.72;3.08;;;13.10;99.90;;;;;;5070515;28;20032;-49
2022/06/21 04:23:41;;;;;;;4.70;3.25;;;13.00;99.90;;;;;;5080464;28;20068;-49
2022/06/21 04:26:14;;;;;;;6.43;3.58;;;13.00;99.90;;;;;;5090853;28;20013;-48
2022/06/21 04:28:48;;;;;;;5.20;3.20;;;13.00;99.90;;;;;;5082076;28;20367;-51
2022/06/21 04:31:20;;;;;;;6.05;3.25;;;13.00;99.90;;;;;;5111099;28;20027;-48
2022/06/21 04:33:57;;;;;;;5.07;3.45;;;12.90;99.90;;;;;;5076105;28;20038;-52
2022/06/21 04:36:30;;;;;;;8.18;3.63;;;12.90;99.90;;;;;;5070395;28;20033;-47
2022/06/21 04:39:18;;;;;;;6.90;3.40;;;12.90;99.90;;;;;;5086507;28;20027;-47
2022/06/21 04:41:53;;;;;;;5.90;3.63;;;12.90;99.90;;;;;;5080362;28;20032;-47
2022/06/21 04:44:24;;;;;;;7.05;3.80;;;12.90;99.90;;;;;;5082846;28;20465;-49
2022/06/21 04:47:04;;;;;;;8.70;3.33;;;13.00;99.90;;;;;;5083010;28;20040;-51
2022/06/21 04:49:59;;;;;;;5.65;3.85;;;13.00;99.90;;;;;;5082522;28;20386;-51
2022/06/21 04:52:31;;;;;;;8.00;4.53;;;13.10;99.90;;;;;;5095067;28;20035;-50
2022/06/21 04:54:58;;;;;;;5.85;3.78;;;13.10;99.90;;;;;;5068703;28;20028;-56
2022/06/21 04:57:27;;;;;;;6.13;4.43;;;13.20;99.90;;;;;;5090312;28;20024;-55
2022/06/21 05:00:09;;;;;;;3.95;3.28;;;13.30;99.90;;;;;;5098737;28;20115;-52
2022/06/21 05:02:57;;;;;;;5.70;3.20;;;13.30;99.90;;;;;;5098174;28;20040;-50
2022/06/21 05:05:27;;;;;;;7.35;4.15;;;13.40;99.90;;;;;;5069745;28;20024;-55
2022/06/21 05:08:04;;;;;;;5.60;3.83;;;13.40;99.90;;;;;;5080410;28;20035;-52
2022/06/21 05:10:34;;;;;;;5.22;3.42;;;13.40;99.90;;;;;;5069744;28;20029;-59
2022/06/21 05:13:03;;;;;;;7.95;4.13;;;13.40;99.90;;;;;;5094213;28;20036;-59
2022/06/21 05:15:35;;;;;;;5.70;3.70;;;13.40;99.90;;;;;;5109717;28;20024;-59
2022/06/21 05:18:11;;;;;;;5.95;3.72;;;13.40;99.90;;;;;;5081334;28;20103;-59
2022/06/21 05:20:57;;;;;;;5.25;3.55;;;13.40;99.90;;;;;;5069231;28;20067;-59
2022/06/21 05:23:24;;;;;;;5.82;3.47;;;13.50;99.90;;;;;;5087214;28;20036;-59
2022/06/21 05:25:50;;;;;;;3.55;3.00;;;13.60;99.90;;;;;;5107687;28;20082;-60
2022/06/21 05:28:39;;;;;;;5.07;3.65;;;13.70;99.90;;;;;;5098050;28;20530;-59
2022/06/21 05:31:20;;;;;;;6.03;3.65;;;13.70;99.90;;;;;;5086934;28;20039;-59
2022/06/21 05:33:59;;;;;;;5.90;3.28;;;13.70;99.90;;;;;;5068142;28;20024;-59
2022/06/21 05:36:32;;;;;;;8.27;3.85;;;13.80;99.90;;;;;;5068538;28;20455;-59
2022/06/21 05:39:02;;;;;;;6.57;3.50;;;13.80;99.90;;;;;;5067837;28;20121;-59
2022/06/21 05:41:33;;;;;;;5.10;3.53;;;13.80;99.90;;;;;;5109160;28;20437;-59
2022/06/21 05:44:02;;;;;;;4.75;3.13;;;13.90;99.90;;;;;;5068440;28;20033;-59
2022/06/21 05:46:30;;;;;;;4.15;3.05;;;13.90;99.90;;;;;;5109317;28;20072;-60
2022/06/21 05:48:59;;;;;;;4.18;2.88;;;14.00;99.90;;;;;;5087138;28;20055;-59
2022/06/21 05:51:30;;;;;;;5.38;2.67;;;14.00;99.90;;;;;;5108868;28;20437;-59
2022/06/21 05:54:01;;;;;;;5.45;3.55;;;14.20;99.90;;;;;;5067342;28;20506;-59
2022/06/21 05:56:29;;;;;;;5.32;3.45;;;14.10;99.90;;;;;;5107883;28;20063;-59
2022/06/21 05:59:01;;;;;;;4.45;3.13;;;14.30;99.90;;;;;;5089863;28;20028;-59
2022/06/21 06:01:41;;;;;;;3.60;3.08;;;14.80;99.90;;;;;;5106043;28;20071;-59
2022/06/21 06:04:44;;;;;;;4.53;3.35;;;14.90;99.90;;;;;;5076389;28;20085;-58
2022/06/21 06:07:25;;;;;;;5.65;3.30;;;15.00;99.20;;;;;;5089346;28;20028;-59
2022/06/21 06:09:56;;;;;;;6.28;3.47;;;15.00;99.90;;;;;;5088621;28;20032;-60
2022/06/21 06:12:34;;;;;;;5.00;3.17;;;15.10;99.90;;;;;;5068468;28;20484;-59
2022/06/21 06:15:08;;;;;;;5.95;2.60;;;15.30;99.90;;;;;;5090972;28;20032;-59
2022/06/21 06:17:50;;;;;;;8.15;3.08;;;15.60;99.80;;;;;;5068481;28;20028;-59
2022/06/21 06:20:37;;;;;;;6.07;2.88;;;15.80;97.80;;;;;;5080685;28;20024;-59
2022/06/21 06:23:11;;;;;;;4.03;2.47;;;16.40;92.80;;;;;;5068202;28;20472;-59
2022/06/21 06:26:02;;;;;;;3.20;2.38;;;16.90;96.20;;;;;;5083772;28;20032;-59
2022/06/21 06:28:38;;;;;;;4.78;2.63;;;17.30;77.20;;;;;;5068917;28;20112;-60
2022/06/21 06:31:09;;;;;;;;;;;17.50;91.40;;;;;;5108983;28;20076;-59
2022/06/21 06:33:39;;;;;;;3.78;2.30;;;17.70;64.20;;;;;;5066814;28;20007;-59
2022/06/21 06:36:14;;;;;;;3.60;2.15;;;17.90;79.80;;;;;;5108824;28;20027;-59
2022/06/21 06:38:41;;;;;;;5.47;2.30;;;17.70;81.50;;;;;;5068250;28;20017;-59
2022/06/21 06:41:32;;;;;;;5.00;2.25;;;17.70;84.90;;;;;;5112347;28;20019;-60
2022/06/21 06:44:06;;;;;;;4.90;2.05;;;17.40;76.40;;;;;;5075953;28;20046;-59
2022/06/21 06:46:37;;;;;;;4.30;2.35;;;17.50;75.70;;;;;;5113115;28;20118;-59
2022/06/21 06:49:15;;;;;;;3.30;1.70;;;18.60;75.90;;;;;;5095038;27;20062;-58
2022/06/21 06:52:11;;;;;;;4.95;2.22;;;18.80;55.50;;;;;;5113045;28;20032;-51
2022/06/21 06:54:58;;;;;;;4.80;2.30;;;19.20;56.70;;;;;;5088601;28;20518;-79
2022/06/21 06:57:32;;;;;;;2.40;1.55;;;20.30;61.20;;;;;;5072242;28;20029;-79
2022/06/21 06:59:59;;;;;;;4.03;1.40;;;21.90;53.60;;;;;;5100531;28;20027;-79
2022/06/21 07:02:35;;;;;;;2.47;1.65;;;23.50;49.60;;;;;;5113028;28;20453;-78
2022/06/21 07:05:13;;;;;;;2.90;1.20;;;24.50;36.90;;;;;;5082885;28;20036;-78
2022/06/21 07:07:51;;;;;;;5.38;1.33;;;26.00;29.40;;;;;;5072097;28;20033;-79
2022/06/21 07:10:25;;;;;;;4.13;1.38;;;27.60;26.30;;;;;;5084628;28;20541;-78
2022/06/21 07:12:53;;;;;;;2.30;1.35;;;28.20;27.80;;;;;;5071913;28;20047;-79
2022/06/21 07:15:23;;;;;;;1.38;1.00;;;28.90;30.00;;;;;;5094785;28;20667;-78
2022/06/21 07:17:56;;;;;;;2.90;1.40;;;29.80;22.70;;;;;;5071745;28;20115;-78
2022/06/21 07:20:31;;;;;;;4.47;1.50;;;30.40;12.80;;;;;;5092820;28;20040;-79
2022/06/21 07:22:57;;;;;;;2.63;1.30;;;31.10;8.40;;;;;;5112053;28;20326;-79
2022/06/21 07:25:38;;;;;;;3.47;1.40;;;32.00;20.30;;;;;;5090800;28;20446;-78
2022/06/21 07:28:29;;;;;;;4.07;1.63;;;32.80;5.90;;;;;;5089412;28;20289;-78
2022/06/21 07:30:58;;;;;;;4.93;1.25;;;33.50;1.00;;;;;;5089610;28;20550;-78
2022/06/21 07:33:34;;;;;;;2.17;1.20;;;33.90;14.30;;;;;;5110412;28;20036;-79
2022/06/21 07:36:03;;;;;;;;;;;34.60;5.50;;;;;;5112575;28;20268;-78
2022/06/21 07:38:46;;;;;;;3.92;1.27;;;34.70;1.00;;;;;;5091806;28;20003;-78
2022/06/21 07:41:36;;;;;;;1.92;1.20;;;34.90;7.10;;;;;;5071373;28;20526;-78
2022/06/21 07:44:13;;;;;;;1.92;1.10;;;35.00;1.00;;;;;;5077581;28;20422;-77
2022/06/21 07:46:46;;;;;;;1.85;1.15;;;35.50;6.00;;;;;;5112213;28;20023;-78
2022/06/21 07:49:24;;;;;;;3.75;1.08;;;35.80;4.10;;;;;;5080453;28;20023;-78
2022/06/21 07:51:54;;;;;;;2.00;0.90;;;36.10;1.00;;;;;;5111316;28;20387;-77
2022/06/21 07:54:28;;;;;;;2.28;0.95;;;36.40;6.40;;;;;;5082328;28;20024;-77
2022/06/21 07:57:03;;;;;;;1.73;1.00;;;36.80;4.00;;;;;;5111620;28;20024;-77
2022/06/21 07:59:45;;;;;;;3.55;1.25;;;36.40;2.10;;;;;;5079985;28;20023;-77
2022/06/21 08:08:03;;;;;;;4.13;1.20;;;36.90;1.00;;;;;;5070830;28;20040;-77
2022/06/21 08:10:44;;;;;;;1.50;0.90;;;36.60;1.00;;;;;;5092095;28;20032;-76
2022/06/21 08:13:11;;;;;;;2.08;0.90;;;36.60;1.00;;;;;;5070387;28;20514;-76
2022/06/21 08:15:42;;;;;;;2.53;1.10;;;36.50;1.00;;;;;;5090498;28;20456;-77
2022/06/21 08:18:27;;;;;;;2.25;0.88;;;36.40;1.00;;;;;;5070616;28;20032;-77
2022/06/21 08:21:04;;;;;;;2.67;0.90;;;36.30;1.00;;;;;;5088394;28;20047;-77
2022/06/21 08:23:40;;;;;;;2.05;0.82;;;36.10;1.00;;;;;;5070583;28;20116;-78
2022/06/21 08:26:31;;;;;;;3.10;0.98;;;35.80;1.00;;;;;;5070172;28;20040;-72
2022/06/21 08:29:13;;;;;;;2.30;0.93;;;35.60;1.00;;;;;;5074616;28;20787;-78
2022/06/21 08:31:44;;;;;;;2.72;1.00;;;34.50;1.00;;;;;;5110972;28;20464;-78
2022/06/21 08:34:34;;;;;;;3.00;0.88;;;34.20;1.00;;;;;;5079101;28;20020;-78
2022/06/21 08:37:09;;;;;;;3.17;0.88;;;34.40;1.00;;;;;;5110897;28;20024;-77
2022/06/21 08:40:07;;;;;;;1.92;1.08;;;34.20;1.00;;;;;;5085907;28;20395;-77
2022/06/21 08:42:53;;;;;;;2.63;0.70;;;34.00;1.00;;;;;;5069743;28;20233;-78
2022/06/21 08:45:43;;;;;;;2.97;1.25;;;33.80;1.00;;;;;;5078464;28;20033;-78
2022/06/21 08:48:46;;;;;;;2.15;0.98;;;33.10;1.00;;;;;;5070111;28;20021;-78
2022/06/21 08:51:43;;;;;;;2.78;1.10;;;32.70;1.00;;;;;;5070185;28;20175;-78
2022/06/21 08:54:32;;;;;;;3.42;0.93;;;32.30;1.00;;;;;;5078023;28;20031;-78
2022/06/21 08:57:19;;;;;;;1.10;0.82;;;31.90;1.00;;;;;;5110218;28;20395;-77
2022/06/21 08:59:53;;;;;;;4.05;0.98;;;31.30;1.00;;;;;;5092006;28;20479;-78
2022/06/21 09:02:50;;;;;;;4.13;1.17;;;31.10;3.60;;;;;;5069058;28;20107;-75
2022/06/21 09:05:54;;;;;;;1.40;0.95;;;30.90;1.00;;;;;;5096558;28;20038;-76
2022/06/21 09:08:41;;;;;;;1.35;0.70;;;30.70;1.00;;;;;;5090175;28;20249;-76
2022/06/21 09:11:28;;;;;;;1.85;0.65;;;30.50;1.00;;;;;;5089727;28;20039;-58
2022/06/21 09:14:12;;;;;;;2.63;0.70;;;29.80;1.00;;;;;;5073379;28;20171;-58
2022/06/21 09:17:04;;;;;;;1.92;0.80;;;29.70;1.00;;;;;;5109792;28;20019;-58
2022/06/21 09:19:29;;;;;;;1.98;1.00;;;29.30;1.00;;;;;;5079840;28;20032;-58
2022/06/21 09:22:40;;;;;;;2.78;0.90;;;28.90;3.20;;;;;;5089644;28;20078;-58
2022/06/21 09:25:15;;;;;;;1.70;0.70;;;29.00;1.00;;;;;;5093240;28;20034;-58
2022/06/21 09:27:46;;;;;;;2.95;1.27;;;28.90;3.00;;;;;;5080258;28;20036;-58
2022/06/21 09:30:21;;;;;;;2.50;0.85;;;28.70;1.50;;;;;;5107414;28;20042;-58
2022/06/21 09:33:05;;;;;;;2.00;1.10;;;27.80;1.80;;;;;;5067460;28;20264;-58
2022/06/21 09:35:52;;;;;;;1.77;0.73;;;27.90;2.70;;;;;;5083461;28;20402;-58
2022/06/21 09:38:39;;;;;;;1.55;0.68;;;28.10;2.60;;;;;;5069004;28;20457;-57
2022/06/21 09:41:15;;;;;;;2.70;0.85;;;28.30;1.10;;;;;;5068838;28;20029;-58
2022/06/21 09:43:55;;;;;;;3.33;0.80;;;28.20;3.20;;;;;;5069284;28;20032;-57
2022/06/21 09:46:27;;;;;;;1.20;0.65;;;28.30;2.50;;;;;;5109167;28;20368;-60
2022/06/21 09:49:15;;;;;;;2.97;0.85;;;28.50;1.30;;;;;;5072268;28;20900;-60
2022/06/21 09:52:12;;;;;;;3.53;1.00;;;28.50;1.20;;;;;;5109232;28;20465;-60
2022/06/21 09:54:41;;;;;;;2.90;1.05;;;28.30;1.00;;;;;;5084895;28;20398;-60
2022/06/21 09:57:25;;;;;;;1.38;0.63;;;28.40;1.60;;;;;;5088479;28;20031;-60
2022/06/21 10:00:07;;;;;;;4.45;1.13;;;28.30;1.00;;;;;;5085175;28;20031;-60
2022/06/21 10:03:01;;;;;;;3.00;0.93;;;28.00;1.00;;;;;;5068273;28;20036;-60
2022/06/21 10:05:39;;;;;;;2.88;1.00;;;27.70;1.00;;;;;;5089737;28;20043;-60
2022/06/21 10:08:51;;;;;;;1.10;0.70;;;27.60;1.00;;;;;;5068429;28;20103;-60
2022/06/21 10:11:43;;;;;;;4.05;0.82;;;27.40;1.00;;;;;;5068105;28;20039;-60
2022/06/21 10:14:39;;;;;;;4.43;0.75;;;27.00;1.00;;;;;;5076217;28;20510;-59
2022/06/21 10:17:30;;;;;;;2.17;1.05;;;26.80;1.20;;;;;;5068540;28;20067;-60
2022/06/21 10:20:20;;;;;;;2.45;0.90;;;26.50;1.80;;;;;;5089804;28;20028;-60
2022/06/21 10:23:04;;;;;;;1.00;0.68;;;26.30;2.10;;;;;;5068499;28;20029;-59
2022/06/21 10:25:54;;;;;;;2.15;0.90;;;26.10;3.00;;;;;;5088840;28;20031;-59
2022/06/21 10:28:52;;;;;;;1.67;0.85;;;25.90;2.60;;;;;;5090316;28;20043;-59
2022/06/21 10:31:55;;;;;;;1.95;0.80;;;25.70;3.50;;;;;;5065373;28;20179;-59
2022/06/21 10:34:39;;;;;;;2.97;0.98;;;25.40;2.50;;;;;;5079931;28;20534;-59
2022/06/21 10:37:35;;;;;;;3.67;1.00;;;25.30;4.20;;;;;;5108819;28;20028;-59
2022/06/21 10:40:26;;;;;;;2.58;0.80;;;25.20;4.50;;;;;;5090874;28;20028;-59
2022/06/21 10:43:19;;;;;;;3.55;0.80;;;25.10;5.00;;;;;;5068232;28;20508;-59
2022/06/21 10:45:49;;;;;;;5.32;0.95;;;25.10;3.90;;;;;;5084788;28;20020;-59
2022/06/21 10:48:17;;;;;;;3.97;1.17;;;25.00;3.80;;;;;;5107883;28;20035;-59
2022/06/21 10:51:05;;;;;;;3.67;0.98;;;24.80;3.80;;;;;;5086839;28;20039;-60
2022/06/21 10:53:39;;;;;;;2.50;0.70;;;24.60;3.80;;;;;;5066431;28;20449;-59
2022/06/21 11:02:58;;;;;;;1.77;1.00;;;24.60;4.40;;;;;;5108544;28;20038;-59
2022/06/21 11:05:46;;;;;;;1.35;0.57;;;24.50;5.20;;;;;;5081485;28;20031;-59
2022/06/21 11:08:31;;;;;;;1.20;0.80;;;24.50;5.80;;;;;;5067670;28;20029;-59
2022/06/21 11:11:31;;;;;;;2.78;0.93;;;24.50;5.10;;;;;;5086068;28;20031;-60
2022/06/21 11:14:20;;;;;;;2.40;0.85;;;24.50;4.90;;;;;;5105836;28;20394;-59
2022/06/21 11:17:19;;;;;;;4.65;0.93;;;24.50;5.10;;;;;;5108140;28;20028;-60
2022/06/21 11:19:47;;;;;;;1.40;0.80;;;24.40;4.30;;;;;;5086044;28;20039;-59
2022/06/21 11:22:13;;;;;;;3.47;0.93;;;24.40;4.90;;;;;;5088001;28;20028;-59
2022/06/21 11:24:58;;;;;;;1.33;0.70;;;24.40;5.20;;;;;;5105598;28;20066;-59
2022/06/21 11:27:34;;;;;;;1.77;1.00;;;24.40;5.10;;;;;;5078048;28;20027;-59
2022/06/21 11:30:13;;;;;;;3.30;0.90;;;24.40;4.40;;;;;;5109827;27;20466;-59
2022/06/21 11:33:00;;;;;;;2.38;0.82;;;24.40;4.80;;;;;;5071311;28;20035;-59
2022/06/21 11:35:49;;;;;;;3.50;0.73;;;24.40;5.90;;;;;;5085067;28;20082;-59
2022/06/21 11:38:59;;;;;;;1.75;0.88;;;24.40;5.50;;;;;;5090547;28;20027;-59
2022/06/21 11:42:05;;;;;;;3.05;0.85;;;24.40;5.60;;;;;;5057864;28;20051;-59
2022/06/21 11:44:56;;;;;;;1.95;0.93;;;24.30;5.60;;;;;;5071176;28;20035;-60
2022/06/21 11:47:46;;;;;;;2.67;0.98;;;24.30;2.80;;;;;;5108415;28;20440;-60
2022/06/21 11:50:26;;;;;;;3.35;0.98;;;24.30;4.40;;;;;;5111662;28;20090;-59
2022/06/21 11:53:20;;;;;;;2.45;0.70;;;24.20;5.00;;;;;;5084380;28;20027;-59
2022/06/21 11:55:56;;;;;;;1.27;0.82;;;24.20;4.80;;;;;;5070970;28;20041;-59
2022/06/21 11:58:25;;;;;;;;;;;24.20;4.80;;;;;;5093167;28;20581;-59
2022/06/21 12:01:23;;;;;;;1.58;0.88;;;24.20;4.90;;;;;;5087829;28;19908;-59
2022/06/21 12:04:26;;;;;;;3.50;0.95;;;24.20;5.30;;;;;;5081475;28;20089;-59
2022/06/21 12:07:31;;;;;;;3.83;0.98;;;24.20;5.30;;;;;;5110555;28;20291;-59
2022/06/21 12:10:20;;;;;;;1.33;0.80;;;24.20;5.30;;;;;;5111451;28;20032;-59
2022/06/21 12:13:08;;;;;;;2.63;0.70;;;24.20;5.50;;;;;;5082189;28;20066;-59
2022/06/21 12:15:58;;;;;;;1.33;0.60;;;24.10;5.00;;;;;;5111512;28;20073;-59
2022/06/21 12:18:28;;;;;;;1.58;0.70;;;24.00;5.10;;;;;;5093068;28;20487;-59
2022/06/21 12:21:17;;;;;;;3.90;1.00;;;24.10;5.30;;;;;;5069654;28;20404;-58
2022/06/21 12:23:49;;;;;;;3.65;0.90;;;24.10;4.90;;;;;;5083588;28;20046;-59
2022/06/21 12:26:17;;;;;;;4.03;0.90;;;24.10;4.80;;;;;;5109389;28;20240;-59
2022/06/21 12:28:43;;;;;;;2.88;0.90;;;24.00;2.60;;;;;;5088817;28;20040;-59
2022/06/21 12:31:17;;;;;;;1.13;0.68;;;23.90;3.00;;;;;;5110350;28;20035;-59
2022/06/21 12:33:46;;;;;;;2.05;0.93;;;23.70;3.60;;;;;;5088908;28;20025;-59
2022/06/21 12:36:22;;;;;;;1.75;0.80;;;23.80;4.30;;;;;;5110731;28;20032;-59
2022/06/21 12:38:57;;;;;;;2.90;0.95;;;23.80;4.40;;;;;;5079195;28;20048;-59
2022/06/21 12:41:37;;;;;;;0.93;0.60;;;23.90;4.60;;;;;;5070195;28;20036;-59
2022/06/21 12:44:27;;;;;;;2.70;0.60;;;24.00;4.10;;;;;;5085943;28;20681;-59
2022/06/21 12:47:01;;;;;;;1.40;0.60;;;24.10;3.50;;;;;;5070089;28;20033;-59
2022/06/21 12:49:35;;;;;;;2.97;0.60;;;24.10;3.60;;;;;;5070066;28;20052;-59
2022/06/21 12:52:25;;;;;;;5.32;1.20;;;24.20;3.00;;;;;;5069024;28;20043;-59
2022/06/21 12:55:10;;;;;;;2.30;0.90;;;24.00;2.20;;;;;;5087301;28;20024;-54
2022/06/21 12:58:02;;;;;;;3.08;0.90;;;23.90;3.90;;;;;;5069862;28;20067;-75
2022/06/21 13:00:41;;;;;;;1.95;0.80;;;24.00;4.40;;;;;;5093280;28;20115;-51
2022/06/21 13:03:22;;;;;;;3.20;0.70;;;24.00;4.20;;;;;;5069710;28;20131;-46
2022/06/21 13:06:18;;;;;;;3.03;0.47;;;24.10;3.20;;;;;;5069706;28;20623;-46
2022/06/21 13:09:29;;;;;;;0.68;0.38;;;24.10;1.00;;;;;;5077080;28;20479;-48
2022/06/21 13:12:10;;;;;;;2.50;0.73;;;24.10;1.00;;;;;;5064265;28;20051;-51
2022/06/21 13:14:43;;;;;;;1.90;0.55;;;24.10;1.00;;;;;;5091372;28;20074;-53
2022/06/21 13:17:45;;;;;;;0.70;0.60;;;24.00;1.50;;;;;;5068762;28;20029;-54
2022/06/21 13:20:28;;;;;;;1.92;0.80;;;24.00;1.40;;;;;;5056308;28;20271;-55
2022/06/21 13:23:09;;;;;;;3.50;0.63;;;24.10;2.30;;;;;;5108451;28;20126;-53
2022/06/21 13:25:47;;;;;;;0.63;0.50;;;24.10;1.10;;;;;;5087579;28;20156;-52
2022/06/21 13:28:47;;;;;;;1.48;0.50;;;24.10;2.10;;;;;;5086744;28;20126;-55
2022/06/21 13:31:25;;;;;;;1.17;0.60;;;24.20;2.50;;;;;;5109709;28;20028;-51
2022/06/21 13:34:06;;;;;;;0.57;0.52;;;24.40;1.50;;;;;;5077862;28;20027;-54
2022/06/21 13:36:49;;;;;;;4.15;0.85;;;24.50;1.40;;;;;;5109725;28;20047;-55
2022/06/21 13:39:31;;;;;;;2.53;0.95;;;24.60;1.90;;;;;;5084566;28;20028;-52
2022/06/21 13:45:18;;;;;;;0.73;0.52;;;24.90;1.70;;;;;;5097265;28;20035;-52
2022/06/21 13:47:56;;;;;;;2.22;0.60;;;25.00;1.70;;;;;;5068413;28;20090;-53
2022/06/21 13:50:32;;;;;;;2.60;0.80;;;25.00;1.70;;;;;;5085188;28;20023;-52
2022/06/21 13:53:13;;;;;;;1.20;0.50;;;24.90;1.10;;;;;;5089026;28;20044;-54
2022/06/21 13:55:54;;;;;;;1.98;0.88;;;24.80;1.40;;;;;;5068510;28;20025;-54
2022/06/21 13:58:32;;;;;;;0.88;0.55;;;24.70;1.40;;;;;;5069499;28;20029;-55
2022/06/21 14:01:23;;;;;;;0.50;0.43;;;24.60;1.80;;;;;;5091103;28;20551;-54
2022/06/21 14:04:26;;;;;;;0.60;0.50;;;24.50;2.10;;;;;;5077088;28;20443;-53
2022/06/21 14:07:18;;;;;;;0.70;0.50;;;24.40;2.30;;;;;;5089453;28;20028;-55
2022/06/21 14:09:51;;;;;;;1.80;0.55;;;24.40;2.40;;;;;;5079760;28;20043;-52